createdAt,value
2018-08-27T00:00:12.815Z,0.00
2018-08-27T00:01:12.757Z,0.00
2018-08-27T00:02:12.698Z,0.00
2018-08-27T00:03:12.634Z,0.00
2018-08-27T00:04:12.572Z,0.00
2018-08-27T00:05:12.502Z,0.00
2018-08-27T00:06:12.442Z,0.00
2018-08-27T00:07:12.389Z,0.00
2018-08-27T00:08:12.338Z,0.00
2018-08-27T00:09:12.252Z,0.00
2018-08-27T00:10:12.192Z,0.00
2018-08-27T00:11:12.133Z,0.00
2018-08-27T00:12:12.071Z,0.00
2018-08-27T00:13:12.011Z,0.00
2018-08-27T00:14:11.954Z,0.00
2018-08-27T00:15:11.886Z,0.00
2018-08-27T00:16:11.826Z,0.00
2018-08-27T00:17:11.761Z,0.00
2018-08-27T00:18:11.693Z,0.00
2018-08-27T00:19:11.632Z,0.00
2018-08-27T00:20:11.567Z,0.00
2018-08-27T00:21:11.518Z,0.00
2018-08-27T00:22:11.449Z,0.00
2018-08-27T00:23:11.381Z,0.00
2018-08-27T00:24:11.325Z,0.00
2018-08-27T00:25:11.266Z,0.00
2018-08-27T00:26:11.207Z,0.00
2018-08-27T00:27:11.136Z,0.00
2018-08-27T00:28:11.078Z,0.00
2018-08-27T00:29:11.004Z,0.00
2018-08-27T00:30:10.947Z,0.00
2018-08-27T00:31:10.882Z,0.00
2018-08-27T00:32:10.823Z,0.00
2018-08-27T00:33:10.764Z,0.00
2018-08-27T00:34:10.701Z,0.00
2018-08-27T00:35:10.639Z,0.00
2018-08-27T00:36:10.573Z,0.00
2018-08-27T00:37:10.509Z,0.00
2018-08-27T00:38:10.448Z,0.00
2018-08-27T00:39:10.389Z,0.00
2018-08-27T00:40:10.325Z,0.00
2018-08-27T00:41:10.257Z,0.00
2018-08-27T00:42:10.195Z,0.00
2018-08-27T00:43:10.135Z,0.00
2018-08-27T00:44:10.069Z,0.00
2018-08-27T00:45:10.012Z,0.00
2018-08-27T00:46:09.953Z,0.00
2018-08-27T00:47:09.888Z,0.00
2018-08-27T00:48:09.824Z,0.00
2018-08-27T00:49:09.760Z,0.00
2018-08-27T00:50:09.700Z,0.00
2018-08-27T00:51:09.632Z,0.00
2018-08-27T00:52:09.570Z,0.00
2018-08-27T00:53:09.510Z,0.00
2018-08-27T00:54:09.449Z,0.00
2018-08-27T00:55:09.379Z,0.00
2018-08-27T00:56:09.320Z,0.00
2018-08-27T00:57:09.262Z,0.00
2018-08-27T00:58:09.199Z,0.00
2018-08-27T00:59:09.136Z,0.00
2018-08-27T01:00:09.073Z,0.00
2018-08-27T01:01:09.004Z,0.00
2018-08-27T01:02:08.943Z,0.00
2018-08-27T01:03:08.882Z,0.00
2018-08-27T01:04:08.816Z,0.00
2018-08-27T01:05:08.758Z,0.00
2018-08-27T01:06:08.697Z,0.00
2018-08-27T01:07:08.635Z,0.00
2018-08-27T01:08:08.574Z,0.00
2018-08-27T01:09:08.500Z,0.00
2018-08-27T01:10:08.438Z,0.00
2018-08-27T01:11:08.383Z,0.00
2018-08-27T01:12:08.317Z,0.00
2018-08-27T01:13:08.250Z,0.00
2018-08-27T01:14:08.192Z,0.00
2018-08-27T01:15:08.126Z,0.00
2018-08-27T01:16:08.067Z,0.00
2018-08-27T01:17:08.008Z,0.00
2018-08-27T01:18:07.940Z,0.00
2018-08-27T01:19:07.879Z,0.00
2018-08-27T01:20:07.816Z,0.00
2018-08-27T01:21:07.748Z,0.00
2018-08-27T01:22:07.683Z,0.00
2018-08-27T01:23:07.623Z,0.00
2018-08-27T01:24:07.558Z,0.00
2018-08-27T01:25:07.501Z,0.00
2018-08-27T01:26:07.442Z,0.00
2018-08-27T01:27:07.372Z,0.00
2018-08-27T01:28:07.310Z,0.00
2018-08-27T01:29:07.246Z,0.00
2018-08-27T01:30:07.185Z,0.00
2018-08-27T01:31:07.121Z,0.00
2018-08-27T01:32:07.059Z,0.00
2018-08-27T01:33:06.990Z,0.00
2018-08-27T01:34:06.927Z,0.00
2018-08-27T01:35:06.864Z,0.00
2018-08-27T01:36:06.802Z,0.00
2018-08-27T01:37:06.747Z,0.00
2018-08-27T01:38:06.684Z,0.00
2018-08-27T01:39:06.617Z,0.00
2018-08-27T01:40:06.566Z,0.00
2018-08-27T01:41:06.489Z,0.00
2018-08-27T01:42:06.422Z,0.00
2018-08-27T01:43:06.364Z,0.00
2018-08-27T01:44:06.302Z,0.00
2018-08-27T01:45:06.235Z,0.00
2018-08-27T01:46:06.169Z,0.00
2018-08-27T01:47:06.110Z,0.00
2018-08-27T01:48:06.045Z,0.00
2018-08-27T01:49:05.986Z,0.00
2018-08-27T01:50:05.925Z,0.00
2018-08-27T01:51:05.863Z,0.00
2018-08-27T01:52:05.798Z,0.00
2018-08-27T01:53:05.728Z,0.00
2018-08-27T01:54:05.666Z,0.00
2018-08-27T01:55:05.613Z,0.00
2018-08-27T01:56:05.544Z,0.00
2018-08-27T01:57:05.480Z,0.00
2018-08-27T01:58:05.418Z,0.00
2018-08-27T01:59:05.350Z,0.00
2018-08-27T02:00:05.307Z,0.00
2018-08-27T02:01:05.231Z,0.00
2018-08-27T02:02:05.165Z,0.00
2018-08-27T02:03:05.108Z,0.00
2018-08-27T02:04:05.044Z,0.00
2018-08-27T02:05:04.979Z,0.00
2018-08-27T02:06:04.911Z,0.00
2018-08-27T02:07:04.852Z,0.00
2018-08-27T02:08:04.782Z,0.00
2018-08-27T02:09:04.724Z,0.00
2018-08-27T02:10:04.663Z,0.00
2018-08-27T02:11:04.602Z,0.00
2018-08-27T02:12:04.536Z,0.00
2018-08-27T02:13:04.469Z,0.00
2018-08-27T02:14:04.405Z,0.00
2018-08-27T02:15:04.346Z,0.00
2018-08-27T02:16:04.282Z,0.00
2018-08-27T02:17:04.216Z,0.00
2018-08-27T02:18:04.152Z,0.00
2018-08-27T02:19:04.090Z,0.00
2018-08-27T02:20:04.027Z,0.00
2018-08-27T02:21:04.005Z,0.00
2018-08-27T02:22:03.907Z,0.00
2018-08-27T02:23:03.841Z,0.00
2018-08-27T02:24:03.803Z,0.00
2018-08-27T02:25:03.720Z,0.00
2018-08-27T02:26:03.656Z,0.00
2018-08-27T02:27:03.583Z,0.00
2018-08-27T02:28:03.521Z,0.00
2018-08-27T02:29:03.464Z,0.00
2018-08-27T02:30:03.398Z,0.00
2018-08-27T02:31:03.330Z,0.00
2018-08-27T02:32:03.266Z,0.00
2018-08-27T02:33:03.209Z,0.00
2018-08-27T02:34:03.147Z,0.00
2018-08-27T02:35:03.126Z,0.00
2018-08-27T02:36:03.022Z,0.00
2018-08-27T02:37:02.955Z,0.00
2018-08-27T02:38:02.890Z,0.00
2018-08-27T02:39:02.830Z,0.00
2018-08-27T02:40:02.762Z,0.00
2018-08-27T02:41:02.704Z,0.00
2018-08-27T02:42:02.644Z,0.00
2018-08-27T02:43:02.580Z,0.00
2018-08-27T02:44:02.515Z,0.00
2018-08-27T02:45:02.447Z,0.00
2018-08-27T02:46:02.386Z,0.00
2018-08-27T02:47:02.331Z,0.00
2018-08-27T02:48:02.266Z,0.00
2018-08-27T02:49:02.195Z,0.00
2018-08-27T02:50:02.131Z,0.00
2018-08-27T02:51:02.071Z,0.00
2018-08-27T02:52:02.008Z,0.00
2018-08-27T02:53:01.949Z,0.00
2018-08-27T02:54:01.889Z,0.00
2018-08-27T02:55:01.825Z,0.00
2018-08-27T02:56:01.761Z,0.00
2018-08-27T02:57:01.689Z,0.00
2018-08-27T02:58:01.631Z,0.00
2018-08-27T02:59:01.570Z,0.00
2018-08-27T03:00:01.502Z,0.00
2018-08-27T03:01:01.448Z,0.00
2018-08-27T03:02:01.382Z,0.00
2018-08-27T03:03:01.352Z,0.00
2018-08-27T03:04:01.251Z,0.00
2018-08-27T03:05:01.193Z,0.00
2018-08-27T03:06:01.135Z,0.00
2018-08-27T03:07:01.067Z,0.00
2018-08-27T03:08:01.005Z,0.00
2018-08-27T03:09:00.940Z,0.00
2018-08-27T03:10:00.870Z,0.00
2018-08-27T03:11:00.809Z,0.00
2018-08-27T03:12:00.765Z,0.00
2018-08-27T03:13:00.690Z,0.00
2018-08-27T03:14:00.626Z,0.00
2018-08-27T03:15:00.564Z,0.00
2018-08-27T03:16:00.503Z,0.00
2018-08-27T03:17:00.430Z,0.00
2018-08-27T03:18:00.368Z,0.00
2018-08-27T03:19:00.311Z,0.00
2018-08-27T03:20:00.246Z,0.00
2018-08-27T03:21:00.180Z,0.00
2018-08-27T03:22:00.123Z,0.00
2018-08-27T03:23:00.054Z,0.00
2018-08-27T03:23:59.997Z,0.00
2018-08-27T03:24:59.997Z,0.00
2018-08-27T03:25:59.871Z,0.00
2018-08-27T03:26:59.808Z,0.00
2018-08-27T03:27:59.745Z,0.00
2018-08-27T03:28:59.676Z,0.00
2018-08-27T03:29:59.612Z,0.00
2018-08-27T03:30:59.551Z,0.00
2018-08-27T03:31:59.489Z,0.00
2018-08-27T03:32:59.431Z,0.00
2018-08-27T03:33:59.364Z,0.00
2018-08-27T03:34:59.296Z,0.00
2018-08-27T03:35:59.235Z,0.00
2018-08-27T03:36:59.178Z,0.00
2018-08-27T03:37:59.114Z,4.00
2018-08-27T03:38:59.053Z,4.00
2018-08-27T03:39:58.986Z,0.00
2018-08-27T03:40:58.917Z,4.00
2018-08-27T03:41:58.855Z,4.00
2018-08-27T03:42:58.792Z,8.00
2018-08-27T03:43:58.730Z,4.00
2018-08-27T03:44:58.671Z,8.00
2018-08-27T03:45:58.605Z,8.00
2018-08-27T03:46:58.547Z,8.00
2018-08-27T03:47:58.479Z,12.00
2018-08-27T03:48:58.410Z,16.00
2018-08-27T03:49:58.350Z,16.00
2018-08-27T03:50:58.300Z,20.00
2018-08-27T03:51:58.228Z,20.00
2018-08-27T03:52:58.174Z,28.00
2018-08-27T03:53:58.099Z,32.00
2018-08-27T03:54:58.046Z,36.00
2018-08-27T03:55:57.975Z,40.00
2018-08-27T03:56:57.909Z,48.00
2018-08-27T03:57:57.849Z,52.00
2018-08-27T03:58:57.792Z,56.00
2018-08-27T03:59:57.718Z,68.00
2018-08-27T04:00:57.650Z,76.00
2018-08-27T04:01:57.593Z,80.00
2018-08-27T04:02:57.527Z,88.00
2018-08-27T04:03:57.462Z,96.00
2018-08-27T04:04:57.406Z,108.00
2018-08-27T04:05:57.343Z,120.00
2018-08-27T04:06:57.271Z,132.00
2018-08-27T04:07:57.208Z,144.00
2018-08-27T04:08:57.148Z,152.00
2018-08-27T04:09:57.090Z,168.00
2018-08-27T04:10:57.028Z,184.00
2018-08-27T04:11:56.958Z,204.00
2018-08-27T04:12:56.891Z,220.00
2018-08-27T04:13:56.829Z,240.00
2018-08-27T04:14:56.765Z,256.00
2018-08-27T04:15:56.698Z,276.00
2018-08-27T04:16:56.640Z,304.00
2018-08-27T04:17:56.578Z,332.00
2018-08-27T04:18:56.517Z,368.00
2018-08-27T04:19:56.454Z,408.00
2018-08-27T04:20:56.383Z,452.00
2018-08-27T04:21:56.324Z,488.00
2018-08-27T04:22:56.264Z,532.00
2018-08-27T04:23:56.198Z,568.00
2018-08-27T04:24:56.133Z,608.00
2018-08-27T04:25:56.067Z,644.00
2018-08-27T04:26:56.009Z,688.00
2018-08-27T04:27:55.940Z,728.00
2018-08-27T04:28:55.975Z,760.00
2018-08-27T04:29:55.818Z,796.00
2018-08-27T04:30:55.758Z,828.00
2018-08-27T04:31:55.691Z,860.00
2018-08-27T04:32:55.629Z,888.00
2018-08-27T04:33:55.569Z,912.00
2018-08-27T04:34:55.540Z,944.00
2018-08-27T04:35:55.451Z,984.00
2018-08-27T04:36:55.378Z,1020.00
2018-08-27T04:37:55.317Z,1048.00
2018-08-27T04:38:55.244Z,1068.00
2018-08-27T04:39:55.181Z,1092.00
2018-08-27T04:40:55.129Z,1112.00
2018-08-27T04:41:55.066Z,1124.00
2018-08-27T04:42:55.000Z,1144.00
2018-08-27T04:43:54.935Z,1192.00
2018-08-27T04:44:54.868Z,1216.00
2018-08-27T04:45:54.803Z,1232.00
2018-08-27T04:46:54.764Z,1272.00
2018-08-27T04:47:54.677Z,1324.00
2018-08-27T04:48:54.620Z,1392.00
2018-08-27T04:49:54.557Z,1468.00
2018-08-27T04:50:54.497Z,1556.00
2018-08-27T04:51:54.432Z,1640.00
2018-08-27T04:52:54.364Z,1720.00
2018-08-27T04:53:54.303Z,1796.00
2018-08-27T04:54:54.244Z,1820.00
2018-08-27T04:55:54.177Z,1868.00
2018-08-27T04:56:54.110Z,1940.00
2018-08-27T04:57:54.047Z,2000.00
2018-08-27T04:58:53.997Z,2072.00
2018-08-27T04:59:53.920Z,2128.00
2018-08-27T05:00:53.865Z,2168.00
2018-08-27T05:01:53.802Z,2204.00
2018-08-27T05:02:53.740Z,2256.00
2018-08-27T05:03:53.676Z,2292.00
2018-08-27T05:04:53.606Z,2348.00
2018-08-27T05:05:53.548Z,2384.00
2018-08-27T05:06:53.480Z,2300.00
2018-08-27T05:07:53.417Z,2108.00
2018-08-27T05:08:53.361Z,2036.00
2018-08-27T05:09:53.297Z,1968.00
2018-08-27T05:10:53.233Z,1972.00
2018-08-27T05:11:53.162Z,1932.00
2018-08-27T05:12:53.107Z,1892.00
2018-08-27T05:13:53.048Z,1852.00
2018-08-27T05:14:52.989Z,1860.00
2018-08-27T05:15:52.926Z,1908.00
2018-08-27T05:16:52.854Z,1984.00
2018-08-27T05:17:52.789Z,2080.00
2018-08-27T05:18:52.725Z,2192.00
2018-08-27T05:19:52.659Z,2332.00
2018-08-27T05:20:52.605Z,2492.00
2018-08-27T05:21:52.540Z,2680.00
2018-08-27T05:22:52.477Z,2900.00
2018-08-27T05:23:52.418Z,3192.00
2018-08-27T05:24:52.346Z,3484.00
2018-08-27T05:25:52.285Z,3600.00
2018-08-27T05:26:52.227Z,3556.00
2018-08-27T05:27:52.163Z,3508.00
2018-08-27T05:28:52.093Z,3488.00
2018-08-27T05:29:52.029Z,3508.00
2018-08-27T05:30:51.991Z,3636.00
2018-08-27T05:31:51.905Z,3804.00
2018-08-27T05:32:51.846Z,4036.00
2018-08-27T05:33:51.794Z,4704.00
2018-08-27T05:34:51.723Z,4912.00
2018-08-27T05:35:51.657Z,4792.00
2018-08-27T05:36:51.589Z,4440.00
2018-08-27T05:37:51.528Z,4220.00
2018-08-27T05:38:51.464Z,4204.00
2018-08-27T05:39:51.402Z,4340.00
2018-08-27T05:40:51.345Z,4536.00
2018-08-27T05:41:51.282Z,4804.00
2018-08-27T05:42:51.216Z,5156.00
2018-08-27T05:43:51.151Z,5072.00
2018-08-27T05:44:51.095Z,4616.00
2018-08-27T05:45:51.031Z,4664.00
2018-08-27T05:46:50.970Z,4368.00
2018-08-27T05:47:51.000Z,4004.00
2018-08-27T05:48:50.836Z,3556.00
2018-08-27T05:49:50.776Z,3108.00
2018-08-27T05:50:50.711Z,2896.00
2018-08-27T05:51:50.649Z,2892.00
2018-08-27T05:52:50.594Z,2956.00
2018-08-27T05:53:50.530Z,2928.00
2018-08-27T05:54:50.467Z,3160.00
2018-08-27T05:55:50.402Z,2952.00
2018-08-27T05:56:50.334Z,3116.00
2018-08-27T05:57:50.274Z,3400.00
2018-08-27T05:58:50.215Z,3624.00
2018-08-27T05:59:50.151Z,3800.00
2018-08-27T06:00:50.090Z,3716.00
2018-08-27T06:01:50.083Z,3444.00
2018-08-27T06:02:49.972Z,3372.00
2018-08-27T06:03:49.913Z,3396.00
2018-08-27T06:04:49.847Z,3444.00
2018-08-27T06:05:49.777Z,3488.00
2018-08-27T06:06:49.721Z,3552.00
2018-08-27T06:07:49.651Z,3708.00
2018-08-27T06:08:49.587Z,3900.00
2018-08-27T06:09:49.559Z,4112.00
2018-08-27T06:10:49.456Z,4192.00
2018-08-27T06:11:49.397Z,4224.00
2018-08-27T06:12:49.336Z,4568.00
2018-08-27T06:13:49.273Z,4760.00
2018-08-27T06:14:49.209Z,5740.00
2018-08-27T06:15:49.144Z,6720.00
2018-08-27T06:16:49.086Z,7112.00
2018-08-27T06:17:49.024Z,7548.00
2018-08-27T06:18:48.962Z,7884.00
2018-08-27T06:19:48.903Z,8032.00
2018-08-27T06:20:48.835Z,8092.00
2018-08-27T06:21:48.792Z,7784.00
2018-08-27T06:22:48.706Z,7464.00
2018-08-27T06:23:48.643Z,6820.00
2018-08-27T06:24:48.590Z,6804.00
2018-08-27T06:25:48.527Z,6848.00
2018-08-27T06:26:48.462Z,6820.00
2018-08-27T06:27:48.402Z,6996.00
2018-08-27T06:28:48.333Z,7320.00
2018-08-27T06:29:48.272Z,7580.00
2018-08-27T06:30:48.215Z,7760.00
2018-08-27T06:31:48.164Z,7864.00
2018-08-27T06:32:48.085Z,7984.00
2018-08-27T06:33:48.031Z,8036.00
2018-08-27T06:34:47.961Z,8140.00
2018-08-27T06:35:47.901Z,8228.00
2018-08-27T06:36:47.848Z,8392.00
2018-08-27T06:37:47.782Z,8764.00
2018-08-27T06:38:47.720Z,8456.00
2018-08-27T06:39:47.658Z,8400.00
2018-08-27T06:40:47.592Z,8424.00
2018-08-27T06:41:47.528Z,8400.00
2018-08-27T06:42:47.465Z,8244.00
2018-08-27T06:43:47.402Z,8040.00
2018-08-27T06:44:47.348Z,7800.00
2018-08-27T06:45:47.286Z,7460.00
2018-08-27T06:46:47.223Z,7216.00
2018-08-27T06:47:47.159Z,7116.00
2018-08-27T06:48:47.105Z,7068.00
2018-08-27T06:49:47.040Z,7116.00
2018-08-27T06:50:46.980Z,7328.00
2018-08-27T06:51:46.919Z,7828.00
2018-08-27T06:52:46.855Z,8236.00
2018-08-27T06:53:46.791Z,8528.00
2018-08-27T06:54:46.728Z,8588.00
2018-08-27T06:55:46.664Z,8644.00
2018-08-27T06:56:46.692Z,8612.00
2018-08-27T06:57:46.562Z,8564.00
2018-08-27T06:58:46.489Z,8316.00
2018-08-27T06:59:46.428Z,8016.00
2018-08-27T07:00:46.359Z,8408.00
2018-08-27T07:01:46.299Z,9232.00
2018-08-27T07:02:46.246Z,10188.00
2018-08-27T07:03:46.186Z,10512.00
2018-08-27T07:04:46.122Z,10268.00
2018-08-27T07:05:46.056Z,10144.00
2018-08-27T07:06:45.992Z,10216.00
2018-08-27T07:07:46.019Z,10844.00
2018-08-27T07:08:45.873Z,11204.00
2018-08-27T07:09:45.817Z,10904.00
2018-08-27T07:10:45.751Z,10472.00
2018-08-27T07:11:45.717Z,10076.00
2018-08-27T07:12:45.642Z,9824.00
2018-08-27T07:13:45.565Z,9808.00
2018-08-27T07:14:45.503Z,9644.00
2018-08-27T07:15:45.441Z,9352.00
2018-08-27T07:16:45.386Z,9184.00
2018-08-27T07:17:45.329Z,9180.00
2018-08-27T07:18:45.278Z,9176.00
2018-08-27T07:19:45.197Z,9364.00
2018-08-27T07:20:45.142Z,10096.00
2018-08-27T07:21:45.087Z,11148.00
2018-08-27T07:22:45.022Z,12024.00
2018-08-27T07:23:44.961Z,12308.00
2018-08-27T07:24:44.889Z,12620.00
2018-08-27T07:25:44.832Z,12656.00
2018-08-27T07:26:44.776Z,11916.00
2018-08-27T07:27:44.715Z,11524.00
2018-08-27T07:28:44.648Z,12012.00
2018-08-27T07:29:44.589Z,12708.00
2018-08-27T07:30:44.526Z,13080.00
2018-08-27T07:31:44.464Z,12908.00
2018-08-27T07:32:44.413Z,12784.00
2018-08-27T07:33:44.349Z,12764.00
2018-08-27T07:34:44.285Z,12736.00
2018-08-27T07:35:44.224Z,12828.00
2018-08-27T07:36:44.280Z,12796.00
2018-08-27T07:37:44.107Z,13116.00
2018-08-27T07:38:44.049Z,12692.00
2018-08-27T07:39:43.988Z,12448.00
2018-08-27T07:40:43.923Z,12364.00
2018-08-27T07:41:43.862Z,12312.00
2018-08-27T07:42:43.800Z,12684.00
2018-08-27T07:43:43.741Z,12416.00
2018-08-27T07:44:43.684Z,11992.00
2018-08-27T07:45:43.625Z,11436.00
2018-08-27T07:46:43.564Z,10772.00
2018-08-27T07:47:43.503Z,10628.00
2018-08-27T07:48:43.435Z,10324.00
2018-08-27T07:49:43.379Z,10532.00
2018-08-27T07:50:43.412Z,10696.00
2018-08-27T07:51:43.262Z,10172.00
2018-08-27T07:52:43.203Z,10216.00
2018-08-27T07:53:43.138Z,10880.00
2018-08-27T07:54:43.078Z,10864.00
2018-08-27T07:55:43.017Z,11320.00
2018-08-27T07:56:42.963Z,11624.00
2018-08-27T07:57:42.902Z,11892.00
2018-08-27T07:58:42.840Z,12304.00
2018-08-27T07:59:42.781Z,12984.00
2018-08-27T08:00:42.714Z,13580.00
2018-08-27T08:01:42.658Z,13788.00
2018-08-27T08:02:42.596Z,13824.00
2018-08-27T08:03:42.534Z,13844.00
2018-08-27T08:04:42.553Z,13836.00
2018-08-27T08:05:42.422Z,13684.00
2018-08-27T08:06:42.356Z,13468.00
2018-08-27T08:07:42.297Z,13212.00
2018-08-27T08:08:42.241Z,13164.00
2018-08-27T08:09:42.183Z,13392.00
2018-08-27T08:10:42.125Z,13396.00
2018-08-27T08:11:42.064Z,13640.00
2018-08-27T08:12:41.999Z,13676.00
2018-08-27T08:13:41.937Z,13552.00
2018-08-27T08:14:41.877Z,13756.00
2018-08-27T08:15:41.814Z,13964.00
2018-08-27T08:16:41.768Z,13600.00
2018-08-27T08:17:41.703Z,13852.00
2018-08-27T08:18:41.647Z,14780.00
2018-08-27T08:19:41.584Z,15220.00
2018-08-27T08:20:41.519Z,15028.00
2018-08-27T08:21:41.464Z,14552.00
2018-08-27T08:22:41.422Z,13760.00
2018-08-27T08:23:41.351Z,13072.00
2018-08-27T08:24:41.284Z,13452.00
2018-08-27T08:25:41.222Z,13596.00
2018-08-27T08:26:41.162Z,14492.00
2018-08-27T08:27:41.104Z,15408.00
2018-08-27T08:28:41.052Z,16268.00
2018-08-27T08:29:40.991Z,16808.00
2018-08-27T08:30:40.932Z,17280.00
2018-08-27T08:31:40.872Z,17376.00
2018-08-27T08:32:40.812Z,16604.00
2018-08-27T08:33:40.755Z,16148.00
2018-08-27T08:34:40.695Z,16104.00
2018-08-27T08:35:40.634Z,16188.00
2018-08-27T08:36:40.578Z,16164.00
2018-08-27T08:37:40.517Z,16096.00
2018-08-27T08:38:40.457Z,15992.00
2018-08-27T08:39:40.404Z,15876.00
2018-08-27T08:40:40.340Z,14932.00
2018-08-27T08:41:40.291Z,13700.00
2018-08-27T08:42:40.229Z,13052.00
2018-08-27T08:43:40.163Z,12584.00
2018-08-27T08:44:40.098Z,12020.00
2018-08-27T08:45:40.037Z,11788.00
2018-08-27T08:46:39.981Z,11656.00
2018-08-27T08:47:39.920Z,11720.00
2018-08-27T08:48:39.866Z,11956.00
2018-08-27T08:49:39.807Z,12080.00
2018-08-27T08:50:39.753Z,11964.00
2018-08-27T08:51:39.689Z,12032.00
2018-08-27T08:52:39.641Z,12784.00
2018-08-27T08:53:39.614Z,14164.00
2018-08-27T08:54:39.515Z,15736.00
2018-08-27T08:55:39.455Z,16928.00
2018-08-27T08:56:39.387Z,17440.00
2018-08-27T08:57:39.330Z,17408.00
2018-08-27T08:58:39.276Z,17060.00
2018-08-27T08:59:39.214Z,16832.00
2018-08-27T09:00:39.157Z,17128.00
2018-08-27T09:01:39.124Z,17632.00
2018-08-27T09:02:39.042Z,17888.00
2018-08-27T09:03:38.982Z,18272.00
2018-08-27T09:04:38.919Z,18368.00
2018-08-27T09:05:38.858Z,18720.00
2018-08-27T09:06:38.800Z,19680.00
2018-08-27T09:07:38.740Z,20096.00
2018-08-27T09:08:38.761Z,19680.00
2018-08-27T09:09:38.630Z,18272.00
2018-08-27T09:10:38.565Z,17632.00
2018-08-27T09:11:38.509Z,17728.00
2018-08-27T09:12:38.453Z,17984.00
2018-08-27T09:13:38.394Z,18176.00
2018-08-27T09:14:38.335Z,18336.00
2018-08-27T09:15:38.282Z,18080.00
2018-08-27T09:16:38.241Z,17536.00
2018-08-27T09:17:38.232Z,17856.00
2018-08-27T09:18:38.100Z,18080.00
2018-08-27T09:19:38.039Z,17792.00
2018-08-27T09:20:37.984Z,17344.00
2018-08-27T09:21:37.929Z,17600.00
2018-08-27T09:22:37.870Z,18240.00
2018-08-27T09:23:37.853Z,18592.00
2018-08-27T09:24:37.751Z,18272.00
2018-08-27T09:25:37.687Z,18176.00
2018-08-27T09:26:37.638Z,18112.00
2018-08-27T09:27:37.575Z,17536.00
2018-08-27T09:28:37.510Z,16336.00
2018-08-27T09:29:37.503Z,15976.00
2018-08-27T09:30:37.393Z,16096.00
2018-08-27T09:31:37.334Z,16320.00
2018-08-27T09:32:37.283Z,15812.00
2018-08-27T09:33:37.226Z,14844.00
2018-08-27T09:34:37.171Z,14216.00
2018-08-27T09:35:37.107Z,13848.00
2018-08-27T09:36:37.042Z,15204.00
2018-08-27T09:37:37.073Z,16808.00
2018-08-27T09:38:36.928Z,16368.00
2018-08-27T09:39:36.867Z,16760.00
2018-08-27T09:40:36.820Z,18080.00
2018-08-27T09:41:36.848Z,18624.00
2018-08-27T09:42:36.690Z,19104.00
2018-08-27T09:43:36.632Z,19072.00
2018-08-27T09:44:36.578Z,19072.00
2018-08-27T09:45:36.519Z,18208.00
2018-08-27T09:46:36.463Z,16848.00
2018-08-27T09:47:36.401Z,16300.00
2018-08-27T09:48:36.340Z,15732.00
2018-08-27T09:49:36.280Z,15528.00
2018-08-27T09:50:36.221Z,15132.00
2018-08-27T09:51:36.171Z,15024.00
2018-08-27T09:52:36.119Z,15264.00
2018-08-27T09:53:36.052Z,14400.00
2018-08-27T09:54:35.997Z,12916.00
2018-08-27T09:55:35.934Z,12200.00
2018-08-27T09:56:35.871Z,11360.00
2018-08-27T09:57:35.808Z,10696.00
2018-08-27T09:58:35.785Z,10328.00
2018-08-27T09:59:36.399Z,10184.00
2018-08-27T10:00:35.636Z,10516.00
2018-08-27T10:01:35.578Z,10728.00
2018-08-27T10:02:35.522Z,11092.00
2018-08-27T10:03:36.391Z,11408.00
2018-08-27T10:04:35.405Z,11096.00
2018-08-27T10:05:35.348Z,11272.00
2018-08-27T10:06:35.294Z,12412.00
2018-08-27T10:07:35.321Z,13112.00
2018-08-27T10:08:35.169Z,12992.00
2018-08-27T10:09:35.112Z,12704.00
2018-08-27T10:10:35.047Z,13004.00
2018-08-27T10:11:34.989Z,13504.00
2018-08-27T10:12:34.935Z,12828.00
2018-08-27T10:13:34.903Z,12272.00
2018-08-27T10:14:34.809Z,12676.00
2018-08-27T10:15:34.753Z,14032.00
2018-08-27T10:16:34.779Z,14048.00
2018-08-27T10:17:34.649Z,13960.00
2018-08-27T10:18:34.614Z,13708.00
2018-08-27T10:19:34.529Z,13380.00
2018-08-27T10:20:34.515Z,12720.00
2018-08-27T10:21:34.403Z,11992.00
2018-08-27T10:22:34.373Z,11796.00
2018-08-27T10:23:34.616Z,11848.00
2018-08-27T10:24:34.229Z,12284.00
2018-08-27T10:25:34.170Z,12500.00
2018-08-27T10:26:34.249Z,13316.00
2018-08-27T10:27:34.051Z,14788.00
2018-08-27T10:28:33.986Z,16404.00
2018-08-27T10:29:33.928Z,17888.00
2018-08-27T10:30:33.881Z,19552.00
2018-08-27T10:31:33.821Z,19936.00
2018-08-27T10:32:33.752Z,19328.00
2018-08-27T10:33:33.692Z,18336.00
2018-08-27T10:34:33.636Z,16956.00
2018-08-27T10:35:33.637Z,17536.00
2018-08-27T10:36:33.525Z,18848.00
2018-08-27T10:37:33.467Z,20608.00
2018-08-27T10:38:33.407Z,21408.00
2018-08-27T10:39:33.350Z,18624.00
2018-08-27T10:40:33.283Z,16880.00
2018-08-27T10:41:33.230Z,15724.00
2018-08-27T10:42:33.173Z,14824.00
2018-08-27T10:43:33.107Z,14388.00
2018-08-27T10:44:33.052Z,14028.00
2018-08-27T10:45:32.994Z,13736.00
2018-08-27T10:46:32.935Z,13492.00
2018-08-27T10:47:32.873Z,14108.00
2018-08-27T10:48:32.818Z,15316.00
2018-08-27T10:49:32.791Z,14884.00
2018-08-27T10:50:32.736Z,14668.00
2018-08-27T10:51:32.648Z,13512.00
2018-08-27T10:52:32.586Z,13164.00
2018-08-27T10:53:32.522Z,12828.00
2018-08-27T10:54:32.464Z,12524.00
2018-08-27T10:55:32.409Z,13076.00
2018-08-27T10:56:32.352Z,14340.00
2018-08-27T10:57:32.294Z,15300.00
2018-08-27T10:58:32.414Z,16888.00
2018-08-27T10:59:32.179Z,17632.00
2018-08-27T11:00:32.113Z,15880.00
2018-08-27T11:01:32.053Z,15280.00
2018-08-27T11:02:32.001Z,15212.00
2018-08-27T11:03:31.947Z,14544.00
2018-08-27T11:04:31.892Z,14160.00
2018-08-27T11:05:31.827Z,13480.00
2018-08-27T11:06:31.765Z,14068.00
2018-08-27T11:07:31.702Z,16368.00
2018-08-27T11:08:31.651Z,18432.00
2018-08-27T11:09:31.595Z,18368.00
2018-08-27T11:10:31.592Z,17504.00
2018-08-27T11:11:31.476Z,15496.00
2018-08-27T11:12:31.417Z,14016.00
2018-08-27T11:13:31.352Z,14000.00
2018-08-27T11:14:31.319Z,14532.00
2018-08-27T11:15:31.239Z,14484.00
2018-08-27T11:16:31.187Z,14756.00
2018-08-27T11:17:31.126Z,15392.00
2018-08-27T11:18:31.062Z,17408.00
2018-08-27T11:19:31.011Z,19136.00
2018-08-27T11:20:31.114Z,19264.00
2018-08-27T11:21:30.893Z,19360.00
2018-08-27T11:22:30.834Z,17888.00
2018-08-27T11:23:30.774Z,19680.00
2018-08-27T11:24:30.718Z,23648.00
2018-08-27T11:25:30.653Z,35488.00
2018-08-27T11:26:31.226Z,53024.00
2018-08-27T11:27:30.546Z,23200.00
2018-08-27T11:28:30.516Z,21440.00
2018-08-27T11:29:30.429Z,19840.00
2018-08-27T11:30:30.371Z,20416.00
2018-08-27T11:31:30.314Z,22784.00
2018-08-27T11:32:30.249Z,26720.00
2018-08-27T11:33:30.199Z,33600.00
2018-08-27T11:34:30.140Z,27968.00
2018-08-27T11:35:30.104Z,29184.00
2018-08-27T11:36:30.030Z,33984.00
2018-08-27T11:37:29.970Z,32608.00
2018-08-27T11:38:29.904Z,28128.00
2018-08-27T11:39:29.856Z,21024.00
2018-08-27T11:40:29.796Z,21280.00
2018-08-27T11:41:29.762Z,19968.00
2018-08-27T11:42:29.683Z,19648.00
2018-08-27T11:43:29.711Z,21120.00
2018-08-27T11:44:29.577Z,23424.00
2018-08-27T11:45:29.537Z,25376.00
2018-08-27T11:46:29.445Z,24448.00
2018-08-27T11:47:29.400Z,23840.00
2018-08-27T11:48:29.948Z,24992.00
2018-08-27T11:49:29.318Z,25248.00
2018-08-27T11:50:29.286Z,22848.00
2018-08-27T11:51:29.171Z,20768.00
2018-08-27T11:52:29.137Z,18400.00
2018-08-27T11:53:29.052Z,18752.00
2018-08-27T11:54:28.996Z,19264.00
2018-08-27T11:55:28.936Z,19904.00
2018-08-27T11:56:28.906Z,18688.00
2018-08-27T11:57:29.437Z,18208.00
2018-08-27T11:58:28.779Z,18816.00
2018-08-27T11:59:28.710Z,17376.00
2018-08-27T12:00:28.656Z,14632.00
2018-08-27T12:01:28.598Z,13364.00
2018-08-27T12:02:28.538Z,12760.00
2018-08-27T12:03:28.493Z,11912.00
2018-08-27T12:04:28.417Z,13644.00
2018-08-27T12:05:28.369Z,15712.00
2018-08-27T12:06:28.313Z,16676.00
2018-08-27T12:07:28.251Z,16420.00
2018-08-27T12:08:28.186Z,17792.00
2018-08-27T12:09:28.133Z,18656.00
2018-08-27T12:10:28.076Z,18336.00
2018-08-27T12:11:28.015Z,17076.00
2018-08-27T12:12:27.968Z,16048.00
2018-08-27T12:13:27.908Z,15880.00
2018-08-27T12:14:27.849Z,15836.00
2018-08-27T12:15:27.795Z,14944.00
2018-08-27T12:16:27.738Z,14660.00
2018-08-27T12:17:27.672Z,14324.00
2018-08-27T12:18:27.613Z,14124.00